Terminal Aerodrome Forecast
Issued by NWS

Current Version | Previous Version | Graphics & Text | Print | Product List | Glossary On
Versions: 1 2 3 4 5 6 7 8 9 10 11 12 13 14 15 16
000
FTUS41 KILN 191739
TAFLUK
TAF
KLUK 191739Z 1918/2018 19007KT P6SM SCT060 SCT110
     FM200000 VRB02KT P6SM FEW130
     FM200600 00000KT 5SM BR SCT004
     FM200900 00000KT 1/4SM FG FEW002
     FM201100 00000KT 2SM BR SCT002
     FM201400 19003KT P6SM FEW045=

USA.gov is the U.S. government's official web portal to all federal, state and local government web resources and services.